sensor_id;sensor_type;location;lat;lon;timestamp;pressure;altitude;pressure_sealevel;temperature;humidity
55656;BME280;41530;52.382;5.270;2022-10-16T00:01:12;101078.00;;;19.13;53.77
55656;BME280;41530;52.382;5.270;2022-10-16T00:03:39;101079.84;;;19.13;53.72
55656;BME280;41530;52.382;5.270;2022-10-16T00:06:08;101070.00;;;19.13;53.73
55656;BME280;41530;52.382;5.270;2022-10-16T00:08:35;101064.00;;;19.11;53.73
55656;BME280;41530;52.382;5.270;2022-10-16T00:11:14;101058.50;;;19.13;53.71
55656;BME280;41530;52.382;5.270;2022-10-16T00:13:43;101061.16;;;19.13;53.46
55656;BME280;41530;52.382;5.270;2022-10-16T00:16:10;101056.81;;;19.12;53.65
55656;BME280;41530;52.382;5.270;2022-10-16T00:18:38;101061.16;;;19.13;53.54
55656;BME280;41530;52.382;5.270;2022-10-16T00:21:17;101063.31;;;19.09;53.70
55656;BME280;41530;52.382;5.270;2022-10-16T00:23:44;101066.50;;;19.13;53.63
55656;BME280;41530;52.382;5.270;2022-10-16T00:26:16;101069.31;;;19.11;53.70
55656;BME280;41530;52.382;5.270;2022-10-16T00:28:48;101057.97;;;19.09;53.69
55656;BME280;41530;52.382;5.270;2022-10-16T00:31:17;101050.66;;;19.11;53.69
55656;BME280;41530;52.382;5.270;2022-10-16T00:33:44;101039.47;;;19.08;53.58
55656;BME280;41530;52.382;5.270;2022-10-16T00:36:14;101047.16;;;19.11;53.56
55656;BME280;41530;52.382;5.270;2022-10-16T00:38:41;101057.81;;;19.11;53.61
55656;BME280;41530;52.382;5.270;2022-10-16T00:41:12;101059.66;;;19.10;53.75
55656;BME280;41530;52.382;5.270;2022-10-16T00:46:21;101063.31;;;19.09;53.72
55656;BME280;41530;52.382;5.270;2022-10-16T00:49:00;101072.28;;;19.08;53.82
55656;BME280;41530;52.382;5.270;2022-10-16T00:51:34;101060.25;;;19.04;53.56
55656;BME280;41530;52.382;5.270;2022-10-16T00:54:04;101059.94;;;19.07;53.44
55656;BME280;41530;52.382;5.270;2022-10-16T00:56:34;101058.63;;;19.03;53.48
55656;BME280;41530;52.382;5.270;2022-10-16T00:59:03;101048.78;;;19.04;53.30
55656;BME280;41530;52.382;5.270;2022-10-16T01:01:32;101054.94;;;19.04;53.42
55656;BME280;41530;52.382;5.270;2022-10-16T01:03:59;101058.63;;;19.03;53.36
55656;BME280;41530;52.382;5.270;2022-10-16T01:06:40;101050.78;;;19.02;53.20
55656;BME280;41530;52.382;5.270;2022-10-16T01:12:09;101059.59;;;19.02;53.27
55656;BME280;41530;52.382;5.270;2022-10-16T01:17:13;101051.59;;;19.02;53.36
55656;BME280;41530;52.382;5.270;2022-10-16T01:20:01;101051.75;;;19.01;53.19
55656;BME280;41530;52.382;5.270;2022-10-16T01:25:45;101047.88;;;18.95;53.18
55656;BME280;41530;52.382;5.270;2022-10-16T01:28:16;101051.22;;;18.97;53.13
55656;BME280;41530;52.382;5.270;2022-10-16T01:30:46;101051.38;;;18.96;53.27
55656;BME280;41530;52.382;5.270;2022-10-16T01:33:22;101056.56;;;18.97;53.10
55656;BME280;41530;52.382;5.270;2022-10-16T01:35:57;101047.03;;;18.95;53.26
55656;BME280;41530;52.382;5.270;2022-10-16T01:38:34;101053.91;;;18.97;53.34
55656;BME280;41530;52.382;5.270;2022-10-16T01:41:17;101046.88;;;18.96;53.26
55656;BME280;41530;52.382;5.270;2022-10-16T01:43:49;101052.53;;;18.93;53.05
55656;BME280;41530;52.382;5.270;2022-10-16T01:46:19;101062.88;;;18.96;53.14
55656;BME280;41530;52.382;5.270;2022-10-16T01:48:48;101054.88;;;18.96;53.07
55656;BME280;41530;52.382;5.270;2022-10-16T01:51:17;101043.19;;;18.89;53.09
55656;BME280;41530;52.382;5.270;2022-10-16T01:53:53;101055.88;;;18.95;53.08
55656;BME280;41530;52.382;5.270;2022-10-16T01:56:22;101055.34;;;18.92;53.14
55656;BME280;41530;52.382;5.270;2022-10-16T01:58:57;101057.69;;;18.95;53.22
55656;BME280;41530;52.382;5.270;2022-10-16T02:01:26;101067.53;;;18.94;53.45
55656;BME280;41530;52.382;5.270;2022-10-16T02:03:58;101070.19;;;18.94;53.11
55656;BME280;41530;52.382;5.270;2022-10-16T02:06:26;101061.34;;;18.94;53.18
55656;BME280;41530;52.382;5.270;2022-10-16T02:08:53;101058.00;;;18.92;53.10
55656;BME280;41530;52.382;5.270;2022-10-16T02:11:20;101057.84;;;18.93;52.88
55656;BME280;41530;52.382;5.270;2022-10-16T02:13:52;101065.34;;;18.90;53.00
55656;BME280;41530;52.382;5.270;2022-10-16T02:16:20;101069.50;;;18.92;53.03
55656;BME280;41530;52.382;5.270;2022-10-16T02:18:47;101067.84;;;18.91;53.11
55656;BME280;41530;52.382;5.270;2022-10-16T02:21:24;101068.00;;;18.90;53.23
55656;BME280;41530;52.382;5.270;2022-10-16T02:24:03;101076.66;;;18.92;53.21
55656;BME280;41530;52.382;5.270;2022-10-16T02:26:42;101076.66;;;18.92;53.16
55656;BME280;41530;52.382;5.270;2022-10-16T02:29:12;101077.69;;;18.91;53.19
55656;BME280;41530;52.382;5.270;2022-10-16T02:31:44;101084.66;;;18.92;53.22
55656;BME280;41530;52.382;5.270;2022-10-16T02:34:14;101089.34;;;18.90;53.24
55656;BME280;41530;52.382;5.270;2022-10-16T02:36:43;101084.84;;;18.90;53.23
55656;BME280;41530;52.382;5.270;2022-10-16T02:39:11;101087.66;;;18.89;53.29
55656;BME280;41530;52.382;5.270;2022-10-16T02:41:38;101092.31;;;18.86;53.30
55656;BME280;41530;52.382;5.270;2022-10-16T02:44:05;101091.16;;;18.89;53.05
55656;BME280;41530;52.382;5.270;2022-10-16T02:46:31;101092.84;;;18.90;53.18
55656;BME280;41530;52.382;5.270;2022-10-16T02:48:58;101094.66;;;18.90;53.31
55656;BME280;41530;52.382;5.270;2022-10-16T02:51:24;101097.34;;;18.90;53.40
55656;BME280;41530;52.382;5.270;2022-10-16T02:53:51;101096.50;;;18.89;53.32
55656;BME280;41530;52.382;5.270;2022-10-16T02:56:17;101109.00;;;18.89;53.35
55656;BME280;41530;52.382;5.270;2022-10-16T02:58:49;101089.25;;;18.81;53.02
55656;BME280;41530;52.382;5.270;2022-10-16T03:01:16;101103.13;;;18.85;53.48
55656;BME280;41530;52.382;5.270;2022-10-16T03:03:43;101107.31;;;18.88;53.46
55656;BME280;41530;52.382;5.270;2022-10-16T03:06:09;101106.47;;;18.87;53.41
55656;BME280;41530;52.382;5.270;2022-10-16T03:08:36;101105.78;;;18.85;53.41
55656;BME280;41530;52.382;5.270;2022-10-16T03:11:02;101119.13;;;18.85;53.32
55656;BME280;41530;52.382;5.270;2022-10-16T03:13:29;101103.97;;;18.85;53.34
55656;BME280;41530;52.382;5.270;2022-10-16T03:15:55;101102.28;;;18.84;53.27
55656;BME280;41530;52.382;5.270;2022-10-16T03:18:22;101109.28;;;18.85;53.28
55656;BME280;41530;52.382;5.270;2022-10-16T03:20:49;101111.13;;;18.85;53.44
55656;BME280;41530;52.382;5.270;2022-10-16T03:23:15;101110.44;;;18.83;53.55
55656;BME280;41530;52.382;5.270;2022-10-16T03:25:42;101106.78;;;18.84;53.34
55656;BME280;41530;52.382;5.270;2022-10-16T03:28:08;101101.44;;;18.84;53.26
55656;BME280;41530;52.382;5.270;2022-10-16T03:30:35;101102.59;;;18.81;53.36
55656;BME280;41530;52.382;5.270;2022-10-16T03:33:01;101107.63;;;18.84;53.42
55656;BME280;41530;52.382;5.270;2022-10-16T03:35:28;101102.28;;;18.84;53.34
55656;BME280;41530;52.382;5.270;2022-10-16T03:37:56;101108.44;;;18.85;53.43
55656;BME280;41530;52.382;5.270;2022-10-16T03:40:22;101113.78;;;18.85;53.49
55656;BME280;41530;52.382;5.270;2022-10-16T03:42:49;101115.91;;;18.81;53.42
55656;BME280;41530;52.382;5.270;2022-10-16T03:45:16;101119.13;;;18.85;53.68
55656;BME280;41530;52.382;5.270;2022-10-16T03:47:43;101120.09;;;18.84;53.63
55656;BME280;41530;52.382;5.270;2022-10-16T03:50:09;101114.91;;;18.82;53.48
55656;BME280;41530;52.382;5.270;2022-10-16T03:52:36;101117.75;;;18.81;53.56
55656;BME280;41530;52.382;5.270;2022-10-16T03:55:03;101123.59;;;18.84;53.80
55656;BME280;41530;52.382;5.270;2022-10-16T03:57:30;101124.59;;;18.83;53.68
55656;BME280;41530;52.382;5.270;2022-10-16T03:59:56;101132.59;;;18.83;53.67
55656;BME280;41530;52.382;5.270;2022-10-16T04:02:23;101125.88;;;18.79;53.61
55656;BME280;41530;52.382;5.270;2022-10-16T04:04:50;101138.22;;;18.80;53.53
55656;BME280;41530;52.382;5.270;2022-10-16T04:07:16;101127.88;;;18.77;53.52
55656;BME280;41530;52.382;5.270;2022-10-16T04:09:43;101140.88;;;18.80;53.66
55656;BME280;41530;52.382;5.270;2022-10-16T04:12:09;101147.75;;;18.83;53.65
55656;BME280;41530;52.382;5.270;2022-10-16T04:14:36;101143.03;;;18.77;53.75
55656;BME280;41530;52.382;5.270;2022-10-16T04:17:02;101142.88;;;18.78;53.83
55656;BME280;41530;52.382;5.270;2022-10-16T04:19:29;101146.38;;;18.79;53.82
55656;BME280;41530;52.382;5.270;2022-10-16T04:21:55;101160.38;;;18.81;53.68
55656;BME280;41530;52.382;5.270;2022-10-16T04:24:22;101154.38;;;18.79;53.81
55656;BME280;41530;52.382;5.270;2022-10-16T04:26:48;101146.69;;;18.76;54.02
55656;BME280;41530;52.382;5.270;2022-10-16T04:29:15;101167.53;;;18.80;53.93
55656;BME280;41530;52.382;5.270;2022-10-16T04:31:41;101174.69;;;18.80;53.86
55656;BME280;41530;52.382;5.270;2022-10-16T04:34:08;101176.38;;;18.81;53.88
55656;BME280;41530;52.382;5.270;2022-10-16T04:36:34;101179.19;;;18.79;53.86
55656;BME280;41530;52.382;5.270;2022-10-16T04:39:01;101177.50;;;18.78;53.86
55656;BME280;41530;52.382;5.270;2022-10-16T04:41:27;101176.69;;;18.78;53.98
55656;BME280;41530;52.382;5.270;2022-10-16T04:43:54;101182.00;;;18.78;53.77
55656;BME280;41530;52.382;5.270;2022-10-16T04:46:21;101175.88;;;18.77;53.96
55656;BME280;41530;52.382;5.270;2022-10-16T04:48:48;101187.34;;;18.78;54.04
55656;BME280;41530;52.382;5.270;2022-10-16T04:51:14;101190.19;;;18.76;54.02
55656;BME280;41530;52.382;5.270;2022-10-16T04:53:41;101197.34;;;18.76;53.96
55656;BME280;41530;52.382;5.270;2022-10-16T04:56:07;101188.78;;;18.72;53.77
55656;BME280;41530;52.382;5.270;2022-10-16T04:58:34;101189.34;;;18.76;53.89
55656;BME280;41530;52.382;5.270;2022-10-16T05:01:00;101181.25;;;18.68;53.84
55656;BME280;41530;52.382;5.270;2022-10-16T05:03:27;101197.63;;;18.73;53.95
55656;BME280;41530;52.382;5.270;2022-10-16T05:05:53;101198.31;;;18.75;53.91
55656;BME280;41530;52.382;5.270;2022-10-16T05:08:20;101207.16;;;18.75;54.07
55656;BME280;41530;52.382;5.270;2022-10-16T05:10:46;101211.94;;;18.72;53.88
55656;BME280;41530;52.382;5.270;2022-10-16T05:13:13;101213.47;;;18.74;53.98
55656;BME280;41530;52.382;5.270;2022-10-16T05:15:40;101216.44;;;18.71;53.95
55656;BME280;41530;52.382;5.270;2022-10-16T05:18:06;101224.13;;;18.74;54.01
55656;BME280;41530;52.382;5.270;2022-10-16T05:20:33;101234.81;;;18.74;54.09
55656;BME280;41530;52.382;5.270;2022-10-16T05:22:59;101242.78;;;18.74;54.14
55656;BME280;41530;52.382;5.270;2022-10-16T05:25:26;101249.94;;;18.74;54.14
55656;BME280;41530;52.382;5.270;2022-10-16T05:27:53;101252.63;;;18.74;54.14
55656;BME280;41530;52.382;5.270;2022-10-16T05:30:19;101230.53;;;18.64;54.05
55656;BME280;41530;52.382;5.270;2022-10-16T05:32:47;101253.59;;;18.73;54.28
55656;BME280;41530;52.382;5.270;2022-10-16T05:35:15;101253.75;;;18.71;54.20
55656;BME280;41530;52.382;5.270;2022-10-16T05:37:43;101251.22;;;18.70;54.36
55656;BME280;41530;52.382;5.270;2022-10-16T05:40:10;101250.25;;;18.71;54.25
55656;BME280;41530;52.382;5.270;2022-10-16T05:42:36;101264.41;;;18.71;54.37
55656;BME280;41530;52.382;5.270;2022-10-16T05:45:05;101256.69;;;18.68;54.39
55656;BME280;41530;52.382;5.270;2022-10-16T05:47:31;101263.72;;;18.69;54.27
55656;BME280;41530;52.382;5.270;2022-10-16T05:49:58;101246.19;;;18.67;54.36
55656;BME280;41530;52.382;5.270;2022-10-16T05:52:24;101264.69;;;18.68;54.27
55656;BME280;41530;52.382;5.270;2022-10-16T05:54:51;101273.53;;;18.69;54.39
55656;BME280;41530;52.382;5.270;2022-10-16T05:57:17;101275.66;;;18.65;54.31
55656;BME280;41530;52.382;5.270;2022-10-16T05:59:44;101274.81;;;18.65;54.39
55656;BME280;41530;52.382;5.270;2022-10-16T06:02:12;101288.69;;;18.68;54.43
55656;BME280;41530;52.382;5.270;2022-10-16T06:04:39;101283.97;;;18.62;54.47
55656;BME280;41530;52.382;5.270;2022-10-16T06:07:06;101284.34;;;18.67;54.53
55656;BME280;41530;52.382;5.270;2022-10-16T06:09:32;101281.97;;;18.64;54.49
55656;BME280;41530;52.382;5.270;2022-10-16T06:11:59;101284.81;;;18.63;54.50
55656;BME280;41530;52.382;5.270;2022-10-16T06:14:25;101300.19;;;18.69;54.48
55656;BME280;41530;52.382;5.270;2022-10-16T06:16:52;101300.19;;;18.69;54.59
55656;BME280;41530;52.382;5.270;2022-10-16T06:19:19;101291.91;;;18.72;54.42
55656;BME280;41530;52.382;5.270;2022-10-16T06:21:45;101287.56;;;18.71;54.37
55656;BME280;41530;52.382;5.270;2022-10-16T06:24:12;101280.25;;;18.73;54.24
55656;BME280;41530;52.382;5.270;2022-10-16T06:26:38;101281.94;;;18.74;54.47
55656;BME280;41530;52.382;5.270;2022-10-16T06:29:06;101285.44;;;18.74;54.12
55656;BME280;41530;52.382;5.270;2022-10-16T06:31:32;101289.78;;;18.75;54.06
55656;BME280;41530;52.382;5.270;2022-10-16T06:34:00;101280.81;;;18.76;54.64
55656;BME280;41530;52.382;5.270;2022-10-16T06:36:27;101280.94;;;18.75;54.24
55656;BME280;41530;52.382;5.270;2022-10-16T06:38:54;101293.16;;;18.77;54.65
55656;BME280;41530;52.382;5.270;2022-10-16T06:41:21;101285.59;;;18.73;54.87
55656;BME280;41530;52.382;5.270;2022-10-16T06:43:49;101308.28;;;18.77;55.41
55656;BME280;41530;52.382;5.270;2022-10-16T06:46:19;101310.63;;;18.80;55.74
55656;BME280;41530;52.382;5.270;2022-10-16T06:48:45;101312.19;;;18.82;55.08
55656;BME280;41530;52.382;5.270;2022-10-16T06:51:23;101328.16;;;18.82;55.52
55656;BME280;41530;52.382;5.270;2022-10-16T06:53:52;101341.34;;;18.84;55.34
55656;BME280;41530;52.382;5.270;2022-10-16T06:56:30;101337.69;;;18.85;55.48
55656;BME280;41530;52.382;5.270;2022-10-16T06:58:58;101339.38;;;18.86;55.66
55656;BME280;41530;52.382;5.270;2022-10-16T07:01:25;101341.91;;;18.88;55.81
55656;BME280;41530;52.382;5.270;2022-10-16T07:03:52;101344.44;;;18.89;55.35
55656;BME280;41530;52.382;5.270;2022-10-16T07:06:23;101355.94;;;18.90;55.64
55656;BME280;41530;52.382;5.270;2022-10-16T07:08:50;101359.03;;;18.85;55.07
55656;BME280;41530;52.382;5.270;2022-10-16T07:11:19;101374.75;;;18.88;55.16
55656;BME280;41530;52.382;5.270;2022-10-16T07:13:46;101367.56;;;18.89;55.07
55656;BME280;41530;52.382;5.270;2022-10-16T07:16:22;101366.19;;;18.84;54.83
55656;BME280;41530;52.382;5.270;2022-10-16T07:18:49;101372.34;;;18.85;55.47
55656;BME280;41530;52.382;5.270;2022-10-16T07:21:21;101381.06;;;18.87;55.17
55656;BME280;41530;52.382;5.270;2022-10-16T07:23:53;101384.16;;;18.82;55.38
55656;BME280;41530;52.382;5.270;2022-10-16T07:26:20;101387.22;;;18.88;55.48
55656;BME280;41530;52.382;5.270;2022-10-16T07:28:47;101395.09;;;18.89;55.36
55656;BME280;41530;52.382;5.270;2022-10-16T07:31:15;101399.44;;;18.90;55.43
55656;BME280;41530;52.382;5.270;2022-10-16T07:33:43;101410.66;;;18.84;55.12
55656;BME280;41530;52.382;5.270;2022-10-16T07:36:12;101415.00;;;18.85;55.24
55656;BME280;41530;52.382;5.270;2022-10-16T07:38:42;101414.59;;;18.80;55.20
55656;BME280;41530;52.382;5.270;2022-10-16T07:41:13;101431.28;;;18.82;55.06
55656;BME280;41530;52.382;5.270;2022-10-16T07:43:45;101432.28;;;18.81;55.08
55656;BME280;41530;52.382;5.270;2022-10-16T07:46:13;101426.94;;;18.81;54.69
55656;BME280;41530;52.382;5.270;2022-10-16T07:48:39;101431.44;;;18.80;54.74
55656;BME280;41530;52.382;5.270;2022-10-16T07:51:07;101429.75;;;18.79;54.52
55656;BME280;41530;52.382;5.270;2022-10-16T07:53:33;101440.41;;;18.89;54.44
55656;BME280;41530;52.382;5.270;2022-10-16T07:56:01;101445.28;;;18.94;54.27
55656;BME280;41530;52.382;5.270;2022-10-16T07:58:29;101446.53;;;18.99;54.18
55656;BME280;41530;52.382;5.270;2022-10-16T08:00:56;101454.91;;;19.04;54.00
55656;BME280;41530;52.382;5.270;2022-10-16T08:03:24;101459.13;;;19.07;54.04
55656;BME280;41530;52.382;5.270;2022-10-16T08:05:51;101461.50;;;19.10;53.93
55656;BME280;41530;52.382;5.270;2022-10-16T08:08:18;101467.63;;;19.20;53.75
55656;BME280;41530;52.382;5.270;2022-10-16T08:10:44;101460.88;;;19.26;53.55
55656;BME280;41530;52.382;5.270;2022-10-16T08:13:11;101461.94;;;19.33;53.50
55656;BME280;41530;52.382;5.270;2022-10-16T08:15:44;101474.94;;;19.45;53.30
55656;BME280;41530;52.382;5.270;2022-10-16T08:18:12;101472.41;;;19.53;53.33
55656;BME280;41530;52.382;5.270;2022-10-16T08:20:40;101490.19;;;19.63;53.17
55656;BME280;41530;52.382;5.270;2022-10-16T08:23:07;101485.09;;;19.69;53.03
55656;BME280;41530;52.382;5.270;2022-10-16T08:25:37;101479.81;;;19.77;52.76
55656;BME280;41530;52.382;5.270;2022-10-16T08:28:07;101478.69;;;19.80;52.92
55656;BME280;41530;52.382;5.270;2022-10-16T08:30:34;101485.94;;;19.87;52.88
55656;BME280;41530;52.382;5.270;2022-10-16T08:33:01;101492.66;;;19.91;52.87
55656;BME280;41530;52.382;5.270;2022-10-16T08:35:28;101497.72;;;19.95;52.54
55656;BME280;41530;52.382;5.270;2022-10-16T08:37:55;101497.38;;;19.98;52.68
55656;BME280;41530;52.382;5.270;2022-10-16T08:40:29;101501.59;;;20.00;52.69
55656;BME280;41530;52.382;5.270;2022-10-16T08:51:12;101521.97;;;20.19;52.42
55656;BME280;41530;52.382;5.270;2022-10-16T08:53:56;101516.47;;;20.20;52.39
55656;BME280;41530;52.382;5.270;2022-10-16T08:56:24;101520.88;;;20.12;52.31
55656;BME280;41530;52.382;5.270;2022-10-16T08:58:52;101537.47;;;20.15;52.52
55656;BME280;41530;52.382;5.270;2022-10-16T09:01:41;101548.91;;;20.08;52.83
55656;BME280;41530;52.382;5.270;2022-10-16T09:12:12;101546.88;;;20.19;52.68
55656;BME280;41530;52.382;5.270;2022-10-16T09:20:18;101574.69;;;20.44;52.80
55656;BME280;41530;52.382;5.270;2022-10-16T09:22:46;101563.84;;;20.46;52.85
55656;BME280;41530;52.382;5.270;2022-10-16T09:25:15;101577.13;;;20.55;52.51
55656;BME280;41530;52.382;5.270;2022-10-16T09:27:44;101580.47;;;20.57;52.44
55656;BME280;41530;52.382;5.270;2022-10-16T09:30:17;101583.31;;;20.56;52.42
55656;BME280;41530;52.382;5.270;2022-10-16T09:32:49;101575.69;;;20.61;52.42
55656;BME280;41530;52.382;5.270;2022-10-16T09:35:19;101599.03;;;20.59;52.62
55656;BME280;41530;52.382;5.270;2022-10-16T09:37:50;101600.03;;;20.58;52.67
55656;BME280;41530;52.382;5.270;2022-10-16T09:40:26;101602.72;;;20.58;52.81
55656;BME280;41530;52.382;5.270;2022-10-16T09:43:01;101593.00;;;20.57;52.77
55656;BME280;41530;52.382;5.270;2022-10-16T09:45:28;101586.38;;;20.61;52.66
55656;BME280;41530;52.382;5.270;2022-10-16T09:47:55;101581.16;;;20.59;52.81
55656;BME280;41530;52.382;5.270;2022-10-16T09:50:26;101581.16;;;20.59;52.93
55656;BME280;41530;52.382;5.270;2022-10-16T09:53:11;101595.22;;;20.61;52.48
55656;BME280;41530;52.382;5.270;2022-10-16T09:55:51;101597.56;;;20.64;52.47
55656;BME280;41530;52.382;5.270;2022-10-16T09:58:20;101580.03;;;20.62;52.78
55656;BME280;41530;52.382;5.270;2022-10-16T10:00:54;101592.06;;;20.66;52.78
55656;BME280;41530;52.382;5.270;2022-10-16T10:03:35;101589.94;;;20.70;52.67
55656;BME280;41530;52.382;5.270;2022-10-16T10:06:18;101593.31;;;20.72;52.71
55656;BME280;41530;52.382;5.270;2022-10-16T10:09:05;101595.81;;;20.73;52.88
55656;BME280;41530;52.382;5.270;2022-10-16T10:11:40;101601.19;;;20.73;52.91
55656;BME280;41530;52.382;5.270;2022-10-16T10:14:24;101606.53;;;20.73;52.90
55656;BME280;41530;52.382;5.270;2022-10-16T10:16:53;101606.53;;;20.73;52.91
55656;BME280;41530;52.382;5.270;2022-10-16T10:19:27;101607.06;;;20.77;52.97
55656;BME280;41530;52.382;5.270;2022-10-16T10:21:58;101615.09;;;20.77;53.17
55656;BME280;41530;52.382;5.270;2022-10-16T10:24:24;101610.03;;;20.74;53.02
55656;BME280;41530;52.382;5.270;2022-10-16T10:26:58;101617.44;;;20.80;53.33
55656;BME280;41530;52.382;5.270;2022-10-16T10:29:50;101629.94;;;20.79;52.97
55656;BME280;41530;52.382;5.270;2022-10-16T10:32:33;101632.63;;;20.79;53.49
55656;BME280;41530;52.382;5.270;2022-10-16T10:43:06;101652.59;;;20.85;53.38
55656;BME280;41530;52.382;5.270;2022-10-16T10:45:44;101654.25;;;20.86;53.39
55656;BME280;41530;52.382;5.270;2022-10-16T10:48:21;101642.47;;;20.79;53.29
55656;BME280;41530;52.382;5.270;2022-10-16T10:51:01;101661.28;;;20.87;53.37
55656;BME280;41530;52.382;5.270;2022-10-16T10:56:50;101671.69;;;20.90;53.54
55656;BME280;41530;52.382;5.270;2022-10-16T10:59:30;101672.53;;;20.90;53.72
55656;BME280;41530;52.382;5.270;2022-10-16T11:02:35;101656.31;;;20.92;53.50
55656;BME280;41530;52.382;5.270;2022-10-16T11:07:52;101677.88;;;20.90;53.56
55656;BME280;41530;52.382;5.270;2022-10-16T11:16:18;101688.78;;;20.97;53.62
55656;BME280;41530;52.382;5.270;2022-10-16T11:21:39;101692.16;;;20.99;53.89
55656;BME280;41530;52.382;5.270;2022-10-16T11:26:44;101680.63;;;20.98;53.90
55656;BME280;41530;52.382;5.270;2022-10-16T11:29:17;101691.00;;;21.02;54.00
55656;BME280;41530;52.382;5.270;2022-10-16T11:31:57;101688.84;;;21.05;53.91
55656;BME280;41530;52.382;5.270;2022-10-16T11:34:29;101694.38;;;21.04;54.23
55656;BME280;41530;52.382;5.270;2022-10-16T11:37:11;101688.19;;;21.03;54.31
55656;BME280;41530;52.382;5.270;2022-10-16T11:39:39;101686.19;;;21.05;54.14
55656;BME280;41530;52.382;5.270;2022-10-16T11:42:20;101702.31;;;21.13;54.20
55656;BME280;41530;52.382;5.270;2022-10-16T11:44:58;101694.44;;;21.12;54.11
55656;BME280;41530;52.382;5.270;2022-10-16T11:47:45;101696.28;;;21.11;54.02
55656;BME280;41530;52.382;5.270;2022-10-16T11:50:35;101701.47;;;21.13;53.92
55656;BME280;41530;52.382;5.270;2022-10-16T11:55:58;101712.41;;;21.19;53.78
55656;BME280;41530;52.382;5.270;2022-10-16T11:58:38;101715.94;;;21.20;54.05
55656;BME280;41530;52.382;5.270;2022-10-16T12:06:19;101712.81;;;21.24;54.06
55656;BME280;41530;52.382;5.270;2022-10-16T12:08:51;101718.00;;;21.26;53.81
55656;BME280;41530;52.382;5.270;2022-10-16T12:16:51;101726.56;;;21.29;54.33
55656;BME280;41530;52.382;5.270;2022-10-16T12:19:19;101722.72;;;21.32;53.93
55656;BME280;41530;52.382;5.270;2022-10-16T12:21:46;101704.00;;;21.14;54.42
55656;BME280;41530;52.382;5.270;2022-10-16T12:24:27;101738.16;;;21.38;54.09
55656;BME280;41530;52.382;5.270;2022-10-16T12:26:55;101741.69;;;21.39;54.02
55656;BME280;41530;52.382;5.270;2022-10-16T12:29:38;101745.91;;;21.41;54.42
55656;BME280;41530;52.382;5.270;2022-10-16T12:32:30;101738.72;;;21.42;53.93
55656;BME280;41530;52.382;5.270;2022-10-16T12:35:24;101742.38;;;21.41;54.09
55656;BME280;41530;52.382;5.270;2022-10-16T12:37:52;101752.59;;;21.45;54.34
55656;BME280;41530;52.382;5.270;2022-10-16T12:40:27;101748.78;;;21.48;54.22
55656;BME280;41530;52.382;5.270;2022-10-16T12:42:54;101740.75;;;21.48;54.10
55656;BME280;41530;52.382;5.270;2022-10-16T12:45:32;101745.81;;;21.51;54.18
55656;BME280;41530;52.382;5.270;2022-10-16T12:48:02;101740.59;;;21.49;54.17
55656;BME280;41530;52.382;5.270;2022-10-16T12:50:33;101748.16;;;21.54;54.02
55656;BME280;41530;52.382;5.270;2022-10-16T12:53:01;101746.50;;;21.53;54.45
55656;BME280;41530;52.382;5.270;2022-10-16T12:55:40;101753.03;;;21.58;54.33
55656;BME280;41530;52.382;5.270;2022-10-16T12:58:23;101753.03;;;21.58;54.54
55656;BME280;41530;52.382;5.270;2022-10-16T13:01:06;101758.94;;;21.62;54.56
55656;BME280;41530;52.382;5.270;2022-10-16T13:03:57;101756.94;;;21.64;54.28
55656;BME280;41530;52.382;5.270;2022-10-16T13:09:11;101762.84;;;21.67;54.48
55656;BME280;41530;52.382;5.270;2022-10-16T13:14:58;101766.00;;;21.71;54.40
55656;BME280;41530;52.382;5.270;2022-10-16T13:17:49;101762.34;;;21.72;54.52
55656;BME280;41530;52.382;5.270;2022-10-16T13:23:15;101761.34;;;21.73;54.05
55656;BME280;41530;52.382;5.270;2022-10-16T13:25:48;101766.41;;;21.76;54.29
55656;BME280;41530;52.382;5.270;2022-10-16T13:28:22;101764.41;;;21.78;54.26
55656;BME280;41530;52.382;5.270;2022-10-16T13:30:55;101771.44;;;21.79;54.28
55656;BME280;41530;52.382;5.270;2022-10-16T13:35:56;101785.38;;;21.83;54.18
55656;BME280;41530;52.382;5.270;2022-10-16T13:38:26;101781.50;;;21.85;54.24
55656;BME280;41530;52.382;5.270;2022-10-16T13:41:15;101769.75;;;21.78;54.68
55656;BME280;41530;52.382;5.270;2022-10-16T13:43:45;101773.66;;;21.84;54.67
55656;BME280;41530;52.382;5.270;2022-10-16T13:46:17;101786.41;;;21.90;54.50
55656;BME280;41530;52.382;5.270;2022-10-16T13:48:45;101780.34;;;21.88;54.23
55656;BME280;41530;52.382;5.270;2022-10-16T13:51:22;101799.50;;;21.93;54.45
55656;BME280;41530;52.382;5.270;2022-10-16T13:53:55;101795.28;;;21.90;54.08
55656;BME280;41530;52.382;5.270;2022-10-16T13:56:25;101803.56;;;21.97;54.07
55656;BME280;41530;52.382;5.270;2022-10-16T13:59:01;101813.13;;;21.99;53.98
55656;BME280;41530;52.382;5.270;2022-10-16T14:01:30;101824.69;;;22.00;54.22
55656;BME280;41530;52.382;5.270;2022-10-16T14:04:04;101806.38;;;21.95;54.15
55656;BME280;41530;52.382;5.270;2022-10-16T14:06:32;101798.88;;;21.99;54.32
55656;BME280;41530;52.382;5.270;2022-10-16T14:09:08;101796.03;;;22.00;54.12
55656;BME280;41530;52.382;5.270;2022-10-16T14:11:45;101805.47;;;22.04;54.43
55656;BME280;41530;52.382;5.270;2022-10-16T14:14:14;101805.63;;;22.03;53.82
55656;BME280;41530;52.382;5.270;2022-10-16T14:16:42;101814.19;;;22.07;54.06
55656;BME280;41530;52.382;5.270;2022-10-16T14:19:24;101802.25;;;22.01;53.80
55656;BME280;41530;52.382;5.270;2022-10-16T14:21:52;101795.06;;;22.01;53.99
55656;BME280;41530;52.382;5.270;2022-10-16T14:24:34;101805.16;;;22.08;54.01
55656;BME280;41530;52.382;5.270;2022-10-16T14:27:01;101811.00;;;22.11;54.22
55656;BME280;41530;52.382;5.270;2022-10-16T14:29:29;101801.31;;;22.10;54.23
55656;BME280;41530;52.382;5.270;2022-10-16T14:32:00;101807.19;;;22.14;53.79